createdAt,value
2019-06-27T00:02:23.213Z,19.70
2019-06-27T00:04:52.088Z,20.17
2019-06-27T00:07:20.823Z,20.50
2019-06-27T00:09:49.558Z,20.90
2019-06-27T00:12:18.360Z,19.57
2019-06-27T00:14:47.087Z,19.63
2019-06-27T00:17:15.847Z,18.07
2019-06-27T00:19:44.640Z,18.80
2019-06-27T00:22:14.663Z,18.93
2019-06-27T00:24:43.401Z,18.60
2019-06-27T00:27:12.270Z,17.80
2019-06-27T00:29:41.005Z,17.23
2019-06-27T00:32:09.737Z,16.63
2019-06-27T00:34:38.516Z,17.00
2019-06-27T00:37:07.251Z,15.47
2019-06-27T00:39:35.987Z,15.27
2019-06-27T00:42:04.875Z,15.90
2019-06-27T00:44:33.612Z,15.30
2019-06-27T00:47:02.345Z,15.13
2019-06-27T00:49:31.110Z,14.23
2019-06-27T00:51:59.907Z,14.37
2019-06-27T00:54:28.644Z,13.80
2019-06-27T00:57:13.015Z,14.13
2019-06-27T00:59:27.924Z,14.13
2019-06-27T01:01:56.664Z,14.10
2019-06-27T01:04:25.565Z,15.40
2019-06-27T01:06:54.302Z,14.37
2019-06-27T01:09:23.031Z,15.13
2019-06-27T01:11:51.837Z,14.63
2019-06-27T01:14:20.572Z,14.83
2019-06-27T01:16:49.325Z,14.37
2019-06-27T01:19:18.174Z,14.43
2019-06-27T01:21:46.910Z,14.00
2019-06-27T01:24:15.749Z,14.03
2019-06-27T01:26:44.525Z,13.53
2019-06-27T01:29:13.265Z,14.37
2019-06-27T01:31:42.001Z,14.63
2019-06-27T01:34:10.904Z,14.00
2019-06-27T01:36:39.639Z,13.87
2019-06-27T01:39:08.472Z,13.63
2019-06-27T01:41:37.371Z,14.60
2019-06-27T01:44:07.687Z,13.43
2019-06-27T01:46:36.412Z,13.57
2019-06-27T01:49:05.273Z,13.87
2019-06-27T01:51:34.016Z,13.10
2019-06-27T01:54:02.765Z,13.90
2019-06-27T01:56:31.962Z,13.40
2019-06-27T01:59:00.697Z,13.63
2019-06-27T02:01:29.429Z,13.40
2019-06-27T02:03:58.420Z,12.73
2019-06-27T02:06:27.149Z,13.13
2019-06-27T02:08:55.882Z,12.53
2019-06-27T02:11:24.673Z,13.50
2019-06-27T02:13:53.412Z,12.60
2019-06-27T02:16:22.149Z,13.50
2019-06-27T02:18:51.023Z,12.30
2019-06-27T02:21:19.754Z,12.17
2019-06-27T02:23:48.489Z,12.00
2019-06-27T02:26:17.368Z,11.43
2019-06-27T02:28:46.107Z,10.83
2019-06-27T02:31:14.844Z,11.07
2019-06-27T02:33:43.733Z,10.87
2019-06-27T02:36:12.471Z,11.37
2019-06-27T02:38:41.204Z,10.60
2019-06-27T02:41:10.072Z,11.10
2019-06-27T02:43:38.811Z,10.80
2019-06-27T02:46:07.573Z,10.97
2019-06-27T02:48:36.447Z,10.70
2019-06-27T02:51:05.179Z,10.30
2019-06-27T02:53:33.916Z,11.10
2019-06-27T02:56:02.855Z,11.67
2019-06-27T02:58:32.705Z,12.93
2019-06-27T03:01:01.607Z,11.10
2019-06-27T03:03:30.569Z,11.57
2019-06-27T03:05:59.410Z,11.13
2019-06-27T03:08:28.148Z,11.40
2019-06-27T03:10:57.033Z,10.70
2019-06-27T03:13:25.775Z,11.50
2019-06-27T03:15:54.507Z,10.90
2019-06-27T03:18:23.407Z,10.47
2019-06-27T03:20:52.152Z,11.07
2019-06-27T03:23:20.891Z,11.53
2019-06-27T03:25:49.966Z,11.60
2019-06-27T03:28:18.731Z,11.67
2019-06-27T03:30:47.471Z,12.27
2019-06-27T03:33:16.338Z,12.23
2019-06-27T03:35:45.076Z,11.53
2019-06-27T03:38:13.819Z,11.63
2019-06-27T03:40:42.634Z,12.13
2019-06-27T03:43:11.374Z,12.83
2019-06-27T03:45:40.104Z,12.30
2019-06-27T03:48:08.936Z,12.97
2019-06-27T03:50:37.717Z,13.50
2019-06-27T03:53:06.475Z,12.70
2019-06-27T03:55:35.227Z,13.37
2019-06-27T03:58:03.975Z,12.33
2019-06-27T04:00:34.405Z,13.03
2019-06-27T04:03:03.498Z,12.93
2019-06-27T04:05:32.238Z,12.37
2019-06-27T04:08:00.969Z,13.30
2019-06-27T04:10:29.851Z,12.10
2019-06-27T04:12:58.596Z,11.57
2019-06-27T04:15:27.312Z,11.57
2019-06-27T04:17:56.188Z,11.23
2019-06-27T04:20:25.047Z,10.70
2019-06-27T04:22:53.767Z,10.77
2019-06-27T04:25:22.628Z,10.33
2019-06-27T04:27:51.394Z,11.07
2019-06-27T04:30:20.392Z,10.87
2019-06-27T04:32:49.181Z,10.07
2019-06-27T04:35:17.924Z,10.00
2019-06-27T04:37:46.660Z,11.63
2019-06-27T04:40:15.532Z,11.23
2019-06-27T04:42:44.265Z,11.17
2019-06-27T04:45:13.009Z,11.03
2019-06-27T04:47:41.998Z,10.77
2019-06-27T04:50:10.718Z,11.67
2019-06-27T04:52:39.461Z,11.17
2019-06-27T04:55:08.353Z,11.17
2019-06-27T04:57:37.062Z,11.37
2019-06-27T05:00:06.706Z,10.70
2019-06-27T05:02:35.480Z,10.70
2019-06-27T05:05:05.112Z,11.60
2019-06-27T05:07:33.857Z,10.97
2019-06-27T05:10:02.736Z,11.10
2019-06-27T05:12:31.471Z,10.57
2019-06-27T05:15:00.216Z,10.63
2019-06-27T05:17:28.996Z,10.37
2019-06-27T05:19:57.722Z,10.47
2019-06-27T05:22:26.455Z,11.53
2019-06-27T05:24:55.330Z,11.00
2019-06-27T05:27:24.055Z,9.97
2019-06-27T05:30:08.121Z,10.60
2019-06-27T05:32:23.290Z,15.20
2019-06-27T05:34:52.028Z,13.77
2019-06-27T05:37:20.759Z,8.73
2019-06-27T05:39:49.837Z,8.77
2019-06-27T05:42:18.566Z,8.20
2019-06-27T05:44:47.399Z,8.00
2019-06-27T05:47:17.632Z,8.30
2019-06-27T05:49:46.357Z,8.60
2019-06-27T05:52:15.076Z,9.33
2019-06-27T05:54:44.011Z,10.27
2019-06-27T05:57:12.725Z,7.83
2019-06-27T05:59:41.441Z,8.00
2019-06-27T06:02:10.243Z,8.20
2019-06-27T06:04:39.040Z,7.53
2019-06-27T06:07:07.761Z,6.93
2019-06-27T06:09:36.646Z,7.13
2019-06-27T06:12:05.375Z,6.90
2019-06-27T06:14:34.099Z,5.83
2019-06-27T06:17:02.962Z,6.60
2019-06-27T06:19:31.664Z,5.80
2019-06-27T06:22:00.408Z,5.17
2019-06-27T06:24:29.188Z,5.77
2019-06-27T06:26:57.905Z,5.80
2019-06-27T06:29:26.629Z,5.87
2019-06-27T06:31:55.484Z,5.90
2019-06-27T06:34:24.402Z,5.30
2019-06-27T06:36:53.130Z,5.03
2019-06-27T06:39:21.996Z,5.47
2019-06-27T06:41:50.852Z,5.77
2019-06-27T06:44:19.583Z,5.10
2019-06-27T06:46:48.407Z,4.67
2019-06-27T06:49:17.175Z,5.57
2019-06-27T06:51:45.892Z,5.33
2019-06-27T06:54:14.731Z,4.83
2019-06-27T06:56:43.462Z,5.30
2019-06-27T06:59:12.216Z,5.27
2019-06-27T07:01:41.131Z,5.93
2019-06-27T07:04:09.858Z,5.50
2019-06-27T07:06:38.566Z,5.37
2019-06-27T07:09:07.543Z,6.03
2019-06-27T07:11:36.263Z,6.80
2019-06-27T07:14:05.231Z,7.22
2019-06-27T07:16:34.087Z,7.47
2019-06-27T07:19:02.881Z,6.58
2019-06-27T07:21:31.619Z,7.12
2019-06-27T07:24:00.489Z,7.40
2019-06-27T07:26:29.323Z,7.80
2019-06-27T07:28:58.022Z,10.08
2019-06-27T07:31:26.919Z,14.13
2019-06-27T07:33:55.638Z,9.10
2019-06-27T07:36:24.505Z,8.10
2019-06-27T07:38:53.355Z,6.85
2019-06-27T07:41:22.078Z,7.30
2019-06-27T07:43:50.793Z,6.33
2019-06-27T07:46:25.464Z,5.70
2019-06-27T07:48:50.113Z,6.55
2019-06-27T07:51:18.827Z,6.53
2019-06-27T07:53:47.713Z,6.50
2019-06-27T07:56:16.435Z,6.35
2019-06-27T07:58:45.153Z,6.80
2019-06-27T08:01:14.016Z,6.45
2019-06-27T08:03:42.736Z,5.55
2019-06-27T08:06:11.470Z,5.33
2019-06-27T08:08:40.340Z,5.15
2019-06-27T08:11:09.072Z,5.45
2019-06-27T08:13:37.792Z,5.15
2019-06-27T08:16:06.602Z,5.80
2019-06-27T08:18:36.510Z,5.90
2019-06-27T08:21:06.437Z,17.92
2019-06-27T08:23:41.671Z,10.55
2019-06-27T08:26:05.761Z,7.15
2019-06-27T08:28:36.084Z,4.80
2019-06-27T08:31:04.874Z,4.95
2019-06-27T08:33:33.594Z,4.47
2019-06-27T08:36:02.334Z,4.42
2019-06-27T08:38:31.106Z,4.37
2019-06-27T08:40:59.832Z,3.83
2019-06-27T08:43:28.550Z,3.35
2019-06-27T08:45:57.318Z,3.67
2019-06-27T08:48:26.042Z,3.40
2019-06-27T08:50:54.753Z,4.10
2019-06-27T08:53:23.655Z,3.70
2019-06-27T08:55:52.849Z,3.83
2019-06-27T08:58:21.575Z,3.27
2019-06-27T09:00:50.444Z,3.40
2019-06-27T09:03:19.163Z,3.02
2019-06-27T09:05:47.896Z,3.92
2019-06-27T09:08:16.670Z,4.25
2019-06-27T09:10:45.985Z,3.90
2019-06-27T09:13:14.717Z,3.65
2019-06-27T09:15:43.474Z,4.28
2019-06-27T09:18:12.199Z,3.52
2019-06-27T09:20:40.914Z,3.60
2019-06-27T09:23:09.670Z,3.75
2019-06-27T09:25:38.387Z,3.20
2019-06-27T09:28:07.110Z,3.37
2019-06-27T09:30:36.083Z,3.10
2019-06-27T09:33:04.895Z,3.70
2019-06-27T09:35:33.628Z,3.52
2019-06-27T09:38:02.555Z,3.27
2019-06-27T09:40:31.394Z,3.58
2019-06-27T09:43:00.152Z,3.47
2019-06-27T09:45:29.086Z,3.25
2019-06-27T09:47:57.797Z,3.10
2019-06-27T09:50:26.538Z,2.90
2019-06-27T09:52:55.396Z,2.85
2019-06-27T09:55:24.110Z,2.98
2019-06-27T09:57:52.837Z,2.85
2019-06-27T10:00:22.914Z,2.90
2019-06-27T10:02:51.631Z,2.75
2019-06-27T10:05:20.355Z,2.60
2019-06-27T10:07:49.244Z,2.67
2019-06-27T10:10:18.184Z,2.72
2019-06-27T10:12:46.905Z,3.70
2019-06-27T10:15:16.173Z,3.75
2019-06-27T10:17:44.877Z,3.47
2019-06-27T10:20:13.899Z,2.83
2019-06-27T10:22:42.676Z,2.77
2019-06-27T10:25:12.091Z,3.40
2019-06-27T10:27:40.818Z,3.80
2019-06-27T10:30:10.609Z,3.70
2019-06-27T10:32:39.320Z,3.47
2019-06-27T10:35:08.741Z,2.92
2019-06-27T10:37:39.872Z,2.90
2019-06-27T10:40:09.192Z,3.02
2019-06-27T10:42:38.014Z,3.35
2019-06-27T10:45:07.890Z,3.10
2019-06-27T10:47:36.613Z,2.90
2019-06-27T10:50:07.341Z,3.47
2019-06-27T10:52:36.119Z,3.83
2019-06-27T10:55:05.543Z,2.85
2019-06-27T10:57:34.285Z,3.08
2019-06-27T11:00:04.614Z,3.33
2019-06-27T11:02:33.562Z,3.15
2019-06-27T11:05:02.278Z,3.00
2019-06-27T11:07:34.184Z,3.00
2019-06-27T11:10:03.003Z,3.27
2019-06-27T11:12:31.717Z,3.20
2019-06-27T11:15:00.535Z,3.20
2019-06-27T11:17:29.249Z,2.90
2019-06-27T11:19:57.975Z,3.12
2019-06-27T11:22:26.851Z,3.20
2019-06-27T11:24:55.601Z,3.17
2019-06-27T11:27:27.242Z,2.67
2019-06-27T11:29:55.045Z,3.30
2019-06-27T11:32:26.853Z,3.00
2019-06-27T11:34:55.577Z,3.40
2019-06-27T11:37:24.470Z,3.00
2019-06-27T11:39:53.202Z,6.62
2019-06-27T11:42:21.935Z,3.42
2019-06-27T11:44:50.760Z,3.08
2019-06-27T11:47:19.560Z,4.40
2019-06-27T11:49:48.278Z,3.50
2019-06-27T11:52:17.129Z,4.20
2019-06-27T11:54:45.876Z,10.68
2019-06-27T11:57:14.621Z,3.80
2019-06-27T11:59:43.401Z,4.45
2019-06-27T12:02:12.113Z,4.00
2019-06-27T12:04:40.842Z,3.60
2019-06-27T12:07:11.239Z,3.17
2019-06-27T12:09:39.937Z,2.87
2019-06-27T12:12:08.656Z,3.17
2019-06-27T12:14:37.518Z,2.70
2019-06-27T12:17:06.388Z,3.05
2019-06-27T12:19:35.107Z,2.95
2019-06-27T12:22:03.985Z,3.67
2019-06-27T12:24:32.701Z,3.20
2019-06-27T12:27:01.432Z,5.62
2019-06-27T12:29:30.383Z,2.92
2019-06-27T12:31:59.137Z,3.22
2019-06-27T12:34:27.858Z,2.75
2019-06-27T12:36:56.810Z,3.37
2019-06-27T12:39:25.639Z,3.00
2019-06-27T12:41:54.364Z,4.42
2019-06-27T12:44:23.349Z,4.35
2019-06-27T12:46:52.072Z,3.17
2019-06-27T12:49:20.788Z,2.80
2019-06-27T12:51:49.718Z,3.05
2019-06-27T12:54:18.486Z,2.75
2019-06-27T12:56:47.214Z,2.95
2019-06-27T12:59:15.986Z,3.27
2019-06-27T13:01:44.708Z,3.20
2019-06-27T13:04:22.859Z,3.00
2019-06-27T13:06:43.935Z,3.40
2019-06-27T13:09:12.661Z,2.80
2019-06-27T13:11:41.371Z,3.27
2019-06-27T13:14:10.626Z,2.83
2019-06-27T13:16:39.415Z,3.10
2019-06-27T13:19:08.165Z,3.42
2019-06-27T13:21:37.236Z,3.40
2019-06-27T13:24:05.954Z,4.20
2019-06-27T13:26:34.765Z,3.40
2019-06-27T13:29:03.749Z,3.70
2019-06-27T13:31:32.460Z,3.02
2019-06-27T13:34:01.181Z,2.90
2019-06-27T13:36:33.065Z,3.20
2019-06-27T13:39:00.387Z,2.77
2019-06-27T13:41:29.109Z,2.98
2019-06-27T13:43:57.914Z,2.92
2019-06-27T13:46:26.687Z,2.60
2019-06-27T13:48:55.462Z,3.65
2019-06-27T13:51:24.247Z,3.70
2019-06-27T13:53:52.967Z,3.50
2019-06-27T13:56:21.693Z,3.55
2019-06-27T13:58:50.467Z,2.80
2019-06-27T14:01:19.189Z,3.37
2019-06-27T14:03:49.790Z,3.30
2019-06-27T14:06:18.681Z,3.33
2019-06-27T14:08:47.394Z,3.00
2019-06-27T14:11:16.108Z,2.80
2019-06-27T14:13:45.022Z,3.35
2019-06-27T14:16:13.748Z,3.30
2019-06-27T14:18:42.467Z,3.00
2019-06-27T14:21:11.355Z,4.47
2019-06-27T14:23:40.145Z,3.35
2019-06-27T14:26:08.867Z,3.47
2019-06-27T14:28:37.742Z,3.00
2019-06-27T14:31:06.458Z,3.10
2019-06-27T14:33:35.176Z,3.42
2019-06-27T14:36:04.065Z,3.30
2019-06-27T14:38:32.798Z,3.33
2019-06-27T14:41:01.510Z,3.50
2019-06-27T14:43:30.399Z,3.10
2019-06-27T14:45:59.124Z,3.80
2019-06-27T14:48:27.843Z,3.37
2019-06-27T14:50:56.707Z,3.10
2019-06-27T14:53:25.426Z,3.10
2019-06-27T14:55:54.180Z,4.25
2019-06-27T14:58:22.952Z,3.40
2019-06-27T15:00:52.050Z,4.30
2019-06-27T15:03:20.785Z,3.67
2019-06-27T15:05:49.634Z,3.22
2019-06-27T15:08:18.345Z,3.80
2019-06-27T15:10:47.074Z,2.98
2019-06-27T15:13:15.924Z,3.72
2019-06-27T15:15:44.645Z,3.52
2019-06-27T15:18:16.543Z,3.35
2019-06-27T15:20:43.879Z,3.45
2019-06-27T15:23:12.604Z,3.98
2019-06-27T15:25:41.333Z,7.80
2019-06-27T15:28:10.119Z,6.35
2019-06-27T15:30:38.841Z,3.65
2019-06-27T15:33:08.520Z,3.45
2019-06-27T15:35:50.847Z,3.87
2019-06-27T15:38:07.751Z,3.27
2019-06-27T15:40:36.519Z,3.42
2019-06-27T15:43:05.666Z,3.77
2019-06-27T15:45:34.392Z,3.55
2019-06-27T15:48:03.118Z,3.47
2019-06-27T15:50:32.093Z,3.55
2019-06-27T15:53:00.807Z,4.60
2019-06-27T15:55:29.523Z,3.40
2019-06-27T15:57:58.496Z,3.62
2019-06-27T16:00:27.307Z,4.95
2019-06-27T16:02:56.044Z,4.03
2019-06-27T16:05:24.924Z,4.53
2019-06-27T16:07:53.801Z,4.72
2019-06-27T16:10:23.622Z,4.17
2019-06-27T16:12:52.579Z,3.62
2019-06-27T16:15:21.399Z,4.15
2019-06-27T16:17:50.122Z,4.20
2019-06-27T16:20:20.651Z,3.72
2019-06-27T16:22:49.383Z,4.60
2019-06-27T16:25:18.101Z,3.50
2019-06-27T16:27:46.921Z,3.70
2019-06-27T16:30:16.552Z,3.90
2019-06-27T16:32:45.275Z,4.65
2019-06-27T16:35:14.534Z,5.17
2019-06-27T16:37:43.258Z,3.42
2019-06-27T16:40:12.301Z,4.30
2019-06-27T16:42:41.078Z,3.98
2019-06-27T16:45:10.495Z,4.20
2019-06-27T16:47:39.215Z,4.10
2019-06-27T16:50:09.286Z,4.20
2019-06-27T16:52:38.114Z,4.83
2019-06-27T16:55:07.117Z,5.75
2019-06-27T16:57:35.970Z,8.83
2019-06-27T17:00:05.202Z,7.23
2019-06-27T17:02:33.921Z,5.25
2019-06-27T17:05:02.802Z,6.50
2019-06-27T17:07:31.515Z,4.40
2019-06-27T17:10:00.242Z,4.30
2019-06-27T17:12:29.118Z,6.50
2019-06-27T17:14:57.838Z,5.65
2019-06-27T17:17:26.562Z,6.55
2019-06-27T17:19:55.342Z,5.40
2019-06-27T17:22:24.054Z,4.13
2019-06-27T17:24:52.776Z,4.20
2019-06-27T17:27:21.797Z,4.53
2019-06-27T17:29:50.506Z,4.90
2019-06-27T17:32:19.249Z,4.53
2019-06-27T17:34:48.278Z,4.40
2019-06-27T17:37:18.730Z,4.70
2019-06-27T17:39:47.449Z,5.17
2019-06-27T17:42:16.207Z,4.93
2019-06-27T17:44:44.924Z,5.57
2019-06-27T17:47:13.658Z,5.70
2019-06-27T17:49:42.545Z,5.70
2019-06-27T17:52:11.267Z,4.97
2019-06-27T17:54:39.985Z,4.57
2019-06-27T17:57:08.766Z,5.27
2019-06-27T17:59:37.482Z,5.50
2019-06-27T18:02:06.199Z,5.63
2019-06-27T18:04:34.987Z,5.63
2019-06-27T18:07:13.690Z,5.80
2019-06-27T18:09:34.168Z,6.10
2019-06-27T18:12:04.124Z,6.10
2019-06-27T18:14:32.860Z,10.43
2019-06-27T18:17:01.579Z,9.27
2019-06-27T18:19:30.487Z,19.27
2019-06-27T18:21:59.213Z,17.47
2019-06-27T18:24:27.939Z,15.40
2019-06-27T18:26:56.986Z,15.97
2019-06-27T18:29:25.714Z,12.93
2019-06-27T18:31:54.455Z,14.50
2019-06-27T18:34:23.232Z,13.23
2019-06-27T18:36:51.941Z,13.90
2019-06-27T18:39:20.680Z,17.93
2019-06-27T18:41:49.583Z,27.63
2019-06-27T18:44:18.406Z,15.97
2019-06-27T18:46:47.320Z,12.17
2019-06-27T18:49:16.168Z,10.97
2019-06-27T18:51:44.899Z,11.17
2019-06-27T18:54:13.622Z,9.67
2019-06-27T18:56:42.489Z,10.57
2019-06-27T18:59:11.213Z,10.80
2019-06-27T19:01:39.947Z,10.00
2019-06-27T19:04:08.840Z,11.13
2019-06-27T19:06:37.574Z,11.17
2019-06-27T19:09:06.695Z,10.73
2019-06-27T19:11:35.564Z,11.57
2019-06-27T19:14:04.298Z,11.67
2019-06-27T19:16:33.017Z,9.20
2019-06-27T19:19:21.809Z,8.83
2019-06-27T19:21:57.656Z,9.47
2019-06-27T19:24:28.009Z,8.93
2019-06-27T19:26:57.439Z,9.30
2019-06-27T19:29:26.167Z,10.50
2019-06-27T19:31:55.010Z,9.47
2019-06-27T19:34:23.748Z,9.23
2019-06-27T19:36:52.547Z,9.43
2019-06-27T19:39:21.510Z,9.93
2019-06-27T19:41:50.254Z,9.50
2019-06-27T19:44:18.978Z,9.57
2019-06-27T19:46:47.775Z,9.10
2019-06-27T19:49:16.518Z,9.80
2019-06-27T19:51:45.252Z,9.37
2019-06-27T19:54:15.549Z,10.37
2019-06-27T19:56:44.288Z,10.63
2019-06-27T19:59:13.014Z,10.10
2019-06-27T20:01:41.795Z,10.03
2019-06-27T20:04:10.525Z,10.40
2019-06-27T20:06:39.246Z,9.40
2019-06-27T20:09:08.137Z,9.97
2019-06-27T20:11:36.866Z,9.00
2019-06-27T20:14:05.622Z,9.70
2019-06-27T20:16:34.371Z,9.73
2019-06-27T20:19:05.813Z,9.70
2019-06-27T20:21:33.622Z,9.90
2019-06-27T20:24:02.376Z,9.57
2019-06-27T20:26:31.241Z,9.30
2019-06-27T20:29:00.008Z,8.10
2019-06-27T20:31:28.899Z,8.57
2019-06-27T20:33:57.628Z,9.00
2019-06-27T20:36:26.357Z,8.80
2019-06-27T20:38:55.241Z,8.73
2019-06-27T20:41:23.962Z,8.70
2019-06-27T20:43:52.683Z,9.00
2019-06-27T20:46:21.503Z,10.03
2019-06-27T20:48:53.773Z,10.30
2019-06-27T20:51:20.648Z,10.87
2019-06-27T20:53:49.582Z,11.57
2019-06-27T20:56:18.293Z,11.17
2019-06-27T20:58:47.024Z,11.80
2019-06-27T21:01:15.803Z,12.07
2019-06-27T21:03:44.613Z,11.20
2019-06-27T21:06:13.341Z,11.13
2019-06-27T21:08:51.294Z,11.17
2019-06-27T21:11:12.574Z,10.40
2019-06-27T21:13:41.305Z,11.47
2019-06-27T21:16:10.074Z,10.40
2019-06-27T21:18:38.808Z,10.47
2019-06-27T21:21:07.546Z,11.63
2019-06-27T21:23:36.438Z,11.93
2019-06-27T21:26:05.163Z,15.47
2019-06-27T21:28:33.896Z,15.60
2019-06-27T21:31:02.777Z,15.17
2019-06-27T21:33:31.514Z,15.13
2019-06-27T21:36:00.247Z,15.63
2019-06-27T21:38:29.209Z,14.40
2019-06-27T21:40:57.934Z,14.27
2019-06-27T21:43:26.665Z,14.00
2019-06-27T21:45:55.458Z,13.50
2019-06-27T21:48:24.191Z,13.13
2019-06-27T21:50:52.912Z,11.07
2019-06-27T21:53:21.686Z,10.93
2019-06-27T21:55:50.417Z,12.50
2019-06-27T21:58:19.153Z,10.93
2019-06-27T22:00:48.631Z,9.27
2019-06-27T22:03:17.543Z,9.90
2019-06-27T22:05:46.324Z,9.97
2019-06-27T22:08:15.359Z,9.40
2019-06-27T22:10:44.080Z,8.73
2019-06-27T22:13:12.900Z,9.60
2019-06-27T22:15:41.797Z,9.43
2019-06-27T22:18:10.535Z,8.80
2019-06-27T22:20:39.794Z,8.90
2019-06-27T22:23:08.699Z,9.10
2019-06-27T22:25:40.931Z,8.80
2019-06-27T22:28:07.861Z,8.53
2019-06-27T22:30:36.725Z,8.93
2019-06-27T22:33:05.434Z,8.07
2019-06-27T22:35:34.160Z,8.90
2019-06-27T22:38:20.779Z,8.27
2019-06-27T22:41:07.131Z,8.40
2019-06-27T22:43:53.703Z,8.27
2019-06-27T22:46:40.071Z,8.33
2019-06-27T22:49:08.206Z,7.90
2019-06-27T22:51:48.530Z,8.30
2019-06-27T22:54:18.898Z,8.27
2019-06-27T22:56:47.618Z,8.37
2019-06-27T22:59:16.327Z,8.17
2019-06-27T23:01:45.130Z,8.13
2019-06-27T23:04:13.870Z,8.83
2019-06-27T23:06:42.738Z,9.00
2019-06-27T23:09:13.331Z,8.97
2019-06-27T23:11:42.053Z,9.03
2019-06-27T23:14:10.773Z,8.53
2019-06-27T23:16:39.557Z,8.37
2019-06-27T23:19:11.495Z,8.80
2019-06-27T23:21:38.727Z,8.80
2019-06-27T23:24:07.611Z,8.40
2019-06-27T23:26:36.341Z,9.20
2019-06-27T23:29:05.078Z,9.27
2019-06-27T23:31:34.055Z,9.10
2019-06-27T23:34:02.769Z,9.03
2019-06-27T23:36:31.488Z,8.30
2019-06-27T23:39:00.350Z,9.07
2019-06-27T23:41:29.079Z,8.20
2019-06-27T23:43:57.793Z,7.97
2019-06-27T23:46:40.512Z,8.33
2019-06-27T23:49:10.256Z,8.20
2019-06-27T23:51:38.975Z,7.80
2019-06-27T23:54:07.972Z,9.20
2019-06-27T23:56:37.186Z,8.63
2019-06-27T23:59:06.405Z,8.07
